Time;durP1;ratioP1;P1;durP2;ratioP2;P2;SDS_P1;SDS_P2;PMS_P1;PMS_P2;Temp;Humidity;BMP_temperature;BMP_pressure;BME280_temperature;BME280_humidity;BME280_pressure;Samples;Min_cycle;Max_cycle;Signal;HPM_P1;HPM_P2
2022/01/28 00:00:13;;;;;;;7.57;3.13;;;8.80;99.90;;;;;;5057779;28;20510;-65
2022/01/28 00:05:17;;;;;;;8.93;3.13;;;8.80;99.90;;;;;;5054246;28;20424;-65
2022/01/28 00:07:43;;;;;;;10.27;4.80;;;8.90;99.90;;;;;;5036796;28;20418;-65
2022/01/28 00:10:09;;;;;;;6.20;3.07;;;8.90;99.90;;;;;;5054051;28;20462;-66
2022/01/28 00:12:44;;;;;;;6.77;3.00;;;8.90;99.90;;;;;;5053329;28;20409;-65
2022/01/28 00:15:20;;;;;;;4.43;3.20;;;8.90;99.90;;;;;;5054091;28;20403;-65
2022/01/28 00:37:01;;;;;;;4.67;3.40;;;8.80;99.90;;;;;;5071512;28;20403;-66
2022/01/28 00:39:27;;;;;;;4.27;3.90;;;8.80;99.90;;;;;;5073021;28;20481;-70
2022/01/28 00:41:53;;;;;;;13.47;3.50;;;8.80;99.90;;;;;;5073237;28;20422;-65
2022/01/28 00:44:19;;;;;;;5.90;4.70;;;8.70;99.90;;;;;;5073243;28;20431;-65
2022/01/28 00:46:45;;;;;;;9.33;3.77;;;8.80;99.90;;;;;;5071549;28;20188;-65
2022/01/28 00:49:11;;;;;;;9.67;4.73;;;8.80;99.90;;;;;;5073308;28;20406;-65
2022/01/28 00:51:36;;;;;;;6.93;3.67;;;8.90;99.90;;;;;;5071289;28;20295;-65
2022/01/28 00:54:02;;;;;;;6.63;3.13;;;8.90;99.90;;;;;;5071971;28;20498;-65
2022/01/28 00:56:28;;;;;;;9.30;3.27;;;8.90;99.90;;;;;;5072746;28;20179;-71
2022/01/28 00:58:54;;;;;;;7.47;3.63;;;8.90;99.90;;;;;;5073562;28;20177;-65
2022/01/28 01:01:19;;;;;;;5.97;5.00;;;8.90;99.90;;;;;;5071706;28;20186;-65
2022/01/28 01:03:45;;;;;;;6.23;4.13;;;8.90;99.90;;;;;;5072105;28;20203;-65
2022/01/28 01:06:10;;;;;;;5.57;2.90;;;9.00;99.90;;;;;;5073053;28;20243;-65
2022/01/28 01:08:37;;;;;;;6.57;5.63;;;9.00;99.90;;;;;;5071659;28;20216;-65
2022/01/28 01:11:03;;;;;;;9.10;4.20;;;8.90;99.90;;;;;;5072745;28;20555;-65
2022/01/28 01:13:29;;;;;;;6.47;4.37;;;8.90;99.90;;;;;;5070901;28;20919;-71
2022/01/28 01:15:59;;;;;;;7.33;4.60;;;9.00;99.90;;;;;;5066759;28;20427;-65
2022/01/28 01:18:36;;;;;;;7.77;4.00;;;9.00;99.90;;;;;;5052841;28;20417;-65
2022/01/28 01:21:07;;;;;;;9.80;4.07;;;9.00;99.90;;;;;;5047978;28;20452;-65
2022/01/28 01:23:36;;;;;;;5.17;4.20;;;9.00;99.90;;;;;;5032025;28;20745;-66
2022/01/28 01:28:37;;;;;;;9.43;3.40;;;8.90;99.90;;;;;;5031890;28;20421;-70
2022/01/28 01:31:05;;;;;;;6.10;4.27;;;8.80;99.90;;;;;;4999262;28;20465;-65
2022/01/28 01:33:38;;;;;;;9.00;2.80;;;8.70;99.90;;;;;;5031833;28;20767;-66
2022/01/28 01:36:04;;;;;;;5.80;2.30;;;8.70;99.90;;;;;;5032631;28;20410;-65
2022/01/28 01:38:34;;;;;;;11.23;5.30;;;8.80;99.90;;;;;;5031683;28;20429;-71
2022/01/28 01:41:02;;;;;;;5.83;3.30;;;8.70;99.90;;;;;;5032337;28;20448;-65
2022/01/28 01:43:56;;;;;;;8.13;2.70;;;8.80;99.90;;;;;;5030842;28;20413;-71
2022/01/28 01:46:29;;;;;;;8.93;3.77;;;8.80;99.90;;;;;;5033000;28;20496;-65
2022/01/28 01:54:23;;;;;;;9.80;3.30;;;8.80;99.90;;;;;;5032439;28;20405;-65
2022/01/28 01:56:49;;;;;;;7.67;3.20;;;8.80;99.90;;;;;;5031608;28;20500;-65
2022/01/28 01:59:15;;;;;;;7.87;2.93;;;8.80;99.90;;;;;;5032406;28;20685;-65
2022/01/28 02:01:40;;;;;;;7.03;3.10;;;8.80;99.90;;;;;;5013899;28;20272;-65
2022/01/28 02:04:06;;;;;;;6.07;2.73;;;8.80;99.90;;;;;;5031973;28;20495;-65
2022/01/28 02:06:33;;;;;;;12.20;4.53;;;8.80;99.90;;;;;;5031583;28;20248;-71
2022/01/28 02:08:59;;;;;;;6.87;3.30;;;8.80;99.90;;;;;;5031721;28;20417;-65
2022/01/28 02:11:25;;;;;;;4.87;3.10;;;8.80;99.90;;;;;;5032196;28;20460;-65
2022/01/28 02:13:52;;;;;;;6.27;3.47;;;8.90;99.90;;;;;;5031101;28;20417;-65
2022/01/28 02:16:18;;;;;;;7.60;3.10;;;8.80;99.90;;;;;;5042000;28;20165;-65
2022/01/28 02:18:44;;;;;;;4.93;3.30;;;8.80;99.90;;;;;;5050999;28;20431;-65
2022/01/28 02:21:13;;;;;;;8.17;5.57;;;8.80;99.90;;;;;;5051685;28;20452;-65
2022/01/28 02:23:41;;;;;;;3.47;2.40;;;8.80;99.90;;;;;;5051205;28;20420;-65
2022/01/28 02:26:11;;;;;;;6.97;2.90;;;8.60;99.90;;;;;;5051750;28;20459;-65
2022/01/28 02:28:40;;;;;;;9.00;3.40;;;8.60;99.90;;;;;;5051225;28;20471;-66
2022/01/28 02:31:06;;;;;;;5.83;3.77;;;8.60;99.90;;;;;;5043332;28;20884;-65
2022/01/28 02:33:32;;;;;;;5.20;2.77;;;8.60;99.90;;;;;;5031294;28;20425;-71
2022/01/28 02:36:06;;;;;;;5.60;2.77;;;8.60;99.90;;;;;;5014059;28;20752;-65
2022/01/28 02:38:33;;;;;;;10.77;3.03;;;8.30;99.90;;;;;;5031300;28;20421;-71
2022/01/28 02:41:01;;;;;;;6.20;3.60;;;8.70;99.90;;;;;;5032103;28;20497;-65
2022/01/28 02:46:16;;;;;;;6.87;3.67;;;8.60;99.90;;;;;;5051673;28;20872;-65
2022/01/28 02:48:53;;;;;;;8.50;3.03;;;8.60;99.90;;;;;;5051069;28;20887;-66
2022/01/28 02:51:21;;;;;;;7.23;4.57;;;8.60;99.90;;;;;;5051399;28;20455;-65
2022/01/28 02:53:57;;;;;;;12.23;4.17;;;8.30;99.90;;;;;;5036026;28;20433;-65
2022/01/28 02:56:37;;;;;;;5.37;3.40;;;8.50;99.90;;;;;;5035714;28;20393;-65
2022/01/28 02:59:03;;;;;;;5.33;2.83;;;8.60;99.90;;;;;;5017908;28;20390;-65
2022/01/28 03:01:29;;;;;;;5.03;3.67;;;8.60;99.90;;;;;;5035315;28;20449;-65
2022/01/28 03:03:56;;;;;;;6.30;5.13;;;8.50;99.90;;;;;;5034676;28;20412;-65
2022/01/28 03:06:22;;;;;;;8.20;3.20;;;8.70;99.90;;;;;;5035521;28;20455;-65
2022/01/28 03:08:57;;;;;;;7.20;3.40;;;8.60;99.90;;;;;;5052617;28;20809;-65
2022/01/28 03:17:06;;;;;;;7.30;3.73;;;8.50;99.90;;;;;;4990208;28;20531;-65
2022/01/28 03:19:46;;;;;;;8.30;3.53;;;8.50;99.90;;;;;;5035575;28;20455;-65
2022/01/28 03:22:12;;;;;;;9.80;3.77;;;8.60;99.90;;;;;;5041293;28;20513;-65
2022/01/28 03:24:40;;;;;;;8.97;4.73;;;8.50;99.90;;;;;;5054015;28;20432;-69
2022/01/28 03:27:11;;;;;;;10.53;3.70;;;8.50;99.90;;;;;;5037098;28;20213;-65
2022/01/28 03:29:37;;;;;;;11.63;4.10;;;8.50;99.90;;;;;;5054582;28;20852;-70
2022/01/28 03:32:03;;;;;;;4.17;3.43;;;8.50;99.90;;;;;;5054562;28;20459;-65
2022/01/28 03:34:28;;;;;;;7.10;2.43;;;8.50;99.90;;;;;;5037131;28;20235;-65
2022/01/28 03:36:56;;;;;;;10.03;2.80;;;8.50;99.90;;;;;;5051237;28;20447;-65
2022/01/28 03:39:22;;;;;;;5.40;3.30;;;8.50;99.90;;;;;;5034854;28;20185;-65
2022/01/28 03:41:47;;;;;;;7.17;2.63;;;8.50;99.90;;;;;;5015841;28;20421;-65
2022/01/28 03:44:13;;;;;;;6.10;2.97;;;8.50;99.90;;;;;;5034646;28;20184;-65
2022/01/28 03:46:39;;;;;;;9.60;3.27;;;8.50;99.90;;;;;;5033282;28;20550;-68
2022/01/28 03:49:05;;;;;;;10.47;4.37;;;8.40;99.90;;;;;;5034696;28;20189;-65
2022/01/28 03:51:31;;;;;;;7.80;2.87;;;8.50;99.90;;;;;;5034696;28;20468;-65
2022/01/28 03:53:57;;;;;;;8.90;3.23;;;8.50;99.90;;;;;;5053650;28;20436;-65
2022/01/28 03:56:23;;;;;;;8.33;3.77;;;8.30;99.90;;;;;;5054428;28;20656;-65
2022/01/28 03:58:48;;;;;;;12.73;3.00;;;8.30;99.90;;;;;;5051765;28;20861;-65
2022/01/28 04:01:23;;;;;;;8.33;3.33;;;8.30;99.90;;;;;;5054513;28;20495;-65
2022/01/28 04:11:56;;;;;;;7.40;3.37;;;8.40;99.90;;;;;;5033223;28;20452;-66
2022/01/28 04:19:32;;;;;;;11.17;4.70;;;8.40;99.90;;;;;;5054236;28;20629;-65
2022/01/28 04:21:58;;;;;;;8.60;4.00;;;8.40;99.90;;;;;;5053215;28;20460;-65
2022/01/28 04:24:23;;;;;;;7.87;4.03;;;8.50;99.90;;;;;;5054120;28;20510;-65
2022/01/28 04:26:49;;;;;;;12.77;4.50;;;8.50;99.90;;;;;;5053053;28;20570;-65
2022/01/28 04:29:15;;;;;;;7.30;3.73;;;8.50;99.90;;;;;;5053829;28;20521;-64
2022/01/28 04:31:45;;;;;;;5.63;3.40;;;8.40;99.90;;;;;;5043972;28;20467;-71
2022/01/28 04:34:11;;;;;;;7.70;3.90;;;8.40;99.90;;;;;;5033771;28;20486;-65
2022/01/28 04:36:45;;;;;;;5.90;3.57;;;8.50;99.90;;;;;;5033652;28;20392;-65
2022/01/28 04:39:22;;;;;;;13.10;4.30;;;8.60;99.90;;;;;;5033988;28;20407;-65
2022/01/28 04:42:17;;;;;;;8.70;3.83;;;8.50;99.90;;;;;;5015074;28;20447;-66
2022/01/28 04:45:07;;;;;;;7.37;3.40;;;8.60;99.90;;;;;;5032841;28;20410;-66
2022/01/28 04:48:04;;;;;;;11.07;3.67;;;8.60;99.90;;;;;;5033497;28;20797;-65
2022/01/28 04:51:49;;;;;;;6.27;4.60;;;8.60;99.90;;;;;;5033285;28;20449;-65
2022/01/28 04:53:45;;;;;;;7.97;3.30;;;8.70;99.90;;;;;;5019724;28;20433;-64
2022/01/28 04:59:02;;;;;;;9.40;3.83;;;8.60;99.90;;;;;;5033104;28;20410;-65
2022/01/28 05:04:12;;;;;;;10.40;4.00;;;8.70;99.90;;;;;;5032158;28;20443;-65
2022/01/28 05:27:48;;;;;;;7.20;2.83;;;8.70;99.90;;;;;;5031975;28;20416;-66
2022/01/28 05:30:14;;;;;;;8.00;3.80;;;8.80;99.90;;;;;;5032384;28;20809;-65
2022/01/28 05:32:39;;;;;;;9.53;3.07;;;8.70;99.90;;;;;;5032306;28;20421;-65
2022/01/28 05:35:06;;;;;;;6.10;3.93;;;8.60;99.90;;;;;;5031351;28;20186;-65
2022/01/28 05:37:31;;;;;;;7.40;3.00;;;8.50;99.90;;;;;;5032275;28;20178;-65
2022/01/28 05:39:57;;;;;;;7.87;4.70;;;8.40;99.90;;;;;;5031741;28;20942;-66
2022/01/28 05:42:23;;;;;;;8.93;3.57;;;8.40;99.90;;;;;;5032180;28;20179;-65
2022/01/28 05:44:48;;;;;;;9.20;3.70;;;8.40;99.90;;;;;;5032102;28;20216;-66
2022/01/28 05:47:16;;;;;;;9.30;3.80;;;8.50;99.90;;;;;;5021090;28;20213;-66
2022/01/28 05:49:43;;;;;;;8.13;3.50;;;8.40;99.90;;;;;;5049758;28;20185;-70
2022/01/28 05:52:09;;;;;;;6.40;3.50;;;8.30;99.90;;;;;;5048279;28;20416;-65
2022/01/28 05:54:35;;;;;;;11.03;2.80;;;8.30;99.90;;;;;;5035769;28;20471;-65
2022/01/28 05:57:01;;;;;;;5.03;2.63;;;8.40;99.90;;;;;;5030600;28;20436;-65
2022/01/28 05:59:27;;;;;;;10.17;3.30;;;8.40;99.90;;;;;;5031593;28;20409;-65
2022/01/28 06:01:53;;;;;;;6.90;3.60;;;8.40;99.90;;;;;;5031639;28;20417;-65
2022/01/28 06:04:21;;;;;;;7.93;3.10;;;8.40;99.90;;;;;;5031950;28;20228;-65
2022/01/28 06:06:47;;;;;;;8.53;4.10;;;8.40;99.90;;;;;;5031576;28;20177;-67
2022/01/28 06:09:13;;;;;;;9.10;4.03;;;8.60;99.90;;;;;;5032207;28;20413;-65
2022/01/28 06:11:39;;;;;;;5.43;2.87;;;8.30;99.90;;;;;;5032127;28;20476;-65
2022/01/28 06:14:06;;;;;;;6.50;3.17;;;8.30;99.90;;;;;;5039252;28;20614;-65
2022/01/28 06:16:32;;;;;;;6.43;2.23;;;8.30;99.90;;;;;;5045277;28;20496;-66
2022/01/28 06:18:58;;;;;;;6.70;2.40;;;8.40;99.90;;;;;;5039618;28;20421;-66
2022/01/28 06:21:24;;;;;;;9.73;3.07;;;8.30;99.90;;;;;;5031683;28;20419;-65
2022/01/28 06:23:51;;;;;;;5.20;3.07;;;8.30;99.90;;;;;;5031093;28;20178;-66
2022/01/28 06:26:18;;;;;;;4.20;2.67;;;8.40;99.90;;;;;;5030148;28;20182;-65
2022/01/28 06:28:43;;;;;;;11.13;3.40;;;8.30;99.90;;;;;;5041949;28;20927;-72
2022/01/28 06:31:10;;;;;;;6.20;3.80;;;8.30;99.90;;;;;;5053932;28;20455;-67
2022/01/28 06:33:36;;;;;;;9.40;3.57;;;8.40;99.90;;;;;;5037311;28;20656;-67
2022/01/28 06:36:03;;;;;;;7.33;2.67;;;8.40;99.90;;;;;;5035791;28;20413;-66
2022/01/28 06:38:29;;;;;;;9.80;3.87;;;8.40;99.90;;;;;;5055139;28;20272;-66
2022/01/28 06:40:55;;;;;;;7.10;3.37;;;8.50;99.90;;;;;;5053658;28;20763;-66
2022/01/28 06:43:21;;;;;;;5.07;4.03;;;8.50;99.90;;;;;;5036304;28;20428;-65
2022/01/28 06:45:47;;;;;;;4.43;3.00;;;8.50;99.90;;;;;;5035555;28;20232;-66
2022/01/28 06:48:13;;;;;;;5.07;2.90;;;8.50;99.90;;;;;;5036289;28;20459;-65
2022/01/28 06:50:44;;;;;;;9.50;3.95;;;8.40;99.90;;;;;;5035118;28;20456;-65
2022/01/28 06:53:11;;;;;;;12.00;3.50;;;8.60;99.90;;;;;;5035959;28;20174;-69
2022/01/28 06:55:37;;;;;;;12.60;3.90;;;8.60;99.90;;;;;;5055550;28;20412;-66
2022/01/28 06:58:04;;;;;;;8.88;3.80;;;8.60;99.90;;;;;;5054098;28;20411;-67
2022/01/28 07:00:36;;;;;;;7.38;3.30;;;8.60;99.90;;;;;;5054501;28;20832;-72
2022/01/28 07:03:04;;;;;;;9.30;3.07;;;8.60;99.90;;;;;;5054725;28;20426;-71
2022/01/28 07:05:30;;;;;;;7.70;3.70;;;8.60;99.90;;;;;;5037508;28;20776;-70
2022/01/28 07:07:56;;;;;;;7.70;3.93;;;8.60;99.90;;;;;;5035975;28;20403;-71
2022/01/28 07:10:22;;;;;;;4.50;3.87;;;8.40;99.90;;;;;;5007240;28;20520;-71
2022/01/28 07:12:48;;;;;;;10.47;3.63;;;8.60;99.90;;;;;;5036844;28;20436;-71
2022/01/28 07:15:13;;;;;;;9.87;3.37;;;8.60;99.90;;;;;;5047483;28;20209;-71
2022/01/28 07:17:39;;;;;;;7.50;3.37;;;8.50;99.90;;;;;;5020007;28;20193;-70
2022/01/28 07:20:06;;;;;;;6.33;4.80;;;8.50;99.90;;;;;;5038135;28;20264;-71
2022/01/28 07:22:32;;;;;;;5.53;3.63;;;8.30;99.90;;;;;;5043049;28;20581;-71
2022/01/28 07:24:57;;;;;;;7.03;5.47;;;8.20;99.90;;;;;;5034789;28;20416;-71
2022/01/28 07:27:23;;;;;;;8.37;4.40;;;8.10;99.90;;;;;;5016230;28;20182;-71
2022/01/28 07:29:50;;;;;;;6.10;4.10;;;8.10;99.90;;;;;;5036407;28;20184;-73
2022/01/28 07:32:17;;;;;;;10.80;4.20;;;8.10;99.90;;;;;;5043703;28;20182;-72
2022/01/28 07:34:43;;;;;;;6.70;6.10;;;8.00;99.90;;;;;;5040851;28;20496;-71
2022/01/28 07:37:09;;;;;;;4.60;3.53;;;7.70;99.90;;;;;;5042434;28;20483;-70
2022/01/28 07:39:35;;;;;;;11.40;3.77;;;8.00;99.90;;;;;;5037903;28;20433;-75
2022/01/28 07:42:00;;;;;;;11.47;6.23;;;7.90;99.90;;;;;;5044549;28;20637;-72
2022/01/28 07:44:26;;;;;;;8.13;5.93;;;8.00;99.90;;;;;;5024936;28;20223;-71
2022/01/28 07:46:52;;;;;;;10.53;3.83;;;8.00;99.90;;;;;;5050084;28;20180;-71
2022/01/28 07:49:18;;;;;;;7.47;4.00;;;8.00;99.90;;;;;;5035023;28;20181;-70
2022/01/28 07:51:43;;;;;;;12.07;5.97;;;7.70;99.90;;;;;;5033673;28;20202;-71
2022/01/28 07:54:09;;;;;;;13.00;4.60;;;7.90;99.90;;;;;;5032999;28;20178;-71
2022/01/28 07:56:35;;;;;;;8.50;6.50;;;7.90;99.90;;;;;;5033526;28;20174;-72
2022/01/28 07:59:01;;;;;;;7.90;4.47;;;8.40;99.90;;;;;;5032563;28;20900;-72
2022/01/28 08:01:27;;;;;;;7.40;3.90;;;9.20;99.90;;;;;;5036331;28;20182;-72
2022/01/28 08:03:53;;;;;;;8.20;4.50;;;9.70;99.90;;;;;;5021102;28;20437;-73
2022/01/28 08:06:18;;;;;;;5.70;3.20;;;10.30;99.90;;;;;;5015143;28;20542;-72
2022/01/28 08:08:44;;;;;;;8.23;5.00;;;10.90;99.90;;;;;;5033358;28;20179;-72
2022/01/28 08:11:10;;;;;;;6.20;4.67;;;11.40;99.90;;;;;;5015377;28;20220;-72
2022/01/28 08:13:35;;;;;;;9.40;3.67;;;11.80;99.90;;;;;;5033554;28;20182;-72
2022/01/28 08:16:01;;;;;;;11.50;3.40;;;12.10;99.90;;;;;;5015561;28;20521;-72
2022/01/28 08:18:27;;;;;;;6.80;4.90;;;12.30;98.50;;;;;;5033015;28;20228;-72
2022/01/28 08:20:52;;;;;;;11.33;3.90;;;12.50;98.60;;;;;;4975457;28;1121953;-73
2022/01/28 08:23:18;;;;;;;4.67;2.67;;;12.80;98.30;;;;;;5034370;28;20186;-72
2022/01/28 08:25:44;;;;;;;10.93;5.50;;;13.00;96.40;;;;;;5025778;28;20241;-72
2022/01/28 08:28:10;;;;;;;9.10;4.13;;;13.10;93.90;;;;;;5053547;28;20404;-72
2022/01/28 08:30:39;;;;;;;6.90;5.00;;;12.80;92.10;;;;;;5048366;28;20468;-72
2022/01/28 08:33:06;;;;;;;9.27;6.30;;;12.20;92.20;;;;;;5033537;28;20417;-71
2022/01/28 08:35:36;;;;;;;7.97;3.73;;;11.70;93.30;;;;;;5034254;28;20451;-71
2022/01/28 08:38:03;;;;;;;8.60;6.07;;;11.20;94.30;;;;;;5033256;28;20416;-72
2022/01/28 08:40:29;;;;;;;6.90;5.80;;;10.90;95.20;;;;;;5037435;28;20417;-71
2022/01/28 08:42:56;;;;;;;9.53;3.67;;;10.60;96.10;;;;;;5053322;28;20412;-71
2022/01/28 08:45:22;;;;;;;13.87;4.20;;;10.30;96.80;;;;;;5054099;28;20547;-71
2022/01/28 08:47:48;;;;;;;8.47;3.50;;;10.00;97.60;;;;;;5053540;28;20406;-72
2022/01/28 08:50:14;;;;;;;6.43;3.97;;;9.80;98.80;;;;;;5052689;28;20800;-71
2022/01/28 08:52:40;;;;;;;7.47;3.60;;;9.60;99.60;;;;;;5042503;28;20424;-72
2022/01/28 08:55:06;;;;;;;9.53;3.90;;;9.40;99.90;;;;;;5022500;28;20455;-71
2022/01/28 08:57:32;;;;;;;7.87;4.00;;;9.30;99.90;;;;;;5040315;28;20182;-71
2022/01/28 08:59:58;;;;;;;10.20;3.70;;;9.10;99.90;;;;;;5038001;28;20810;-71
2022/01/28 09:02:25;;;;;;;8.93;3.80;;;9.00;99.90;;;;;;5041845;28;20416;-71
2022/01/28 09:04:50;;;;;;;8.70;3.80;;;9.00;99.90;;;;;;5053335;28;20404;-71
2022/01/28 09:07:19;;;;;;;12.27;3.50;;;8.90;99.90;;;;;;5050945;28;20562;-72
2022/01/28 09:09:51;;;;;;;9.63;4.13;;;8.90;99.90;;;;;;5032717;28;20194;-71
2022/01/28 09:12:39;;;;;;;7.90;4.10;;;8.90;99.90;;;;;;5039095;28;21237;-71
2022/01/28 09:15:07;;;;;;;6.67;3.50;;;8.80;99.90;;;;;;5017380;28;20772;-71
2022/01/28 09:17:32;;;;;;;6.40;3.90;;;8.80;99.90;;;;;;5031414;28;21027;-71
2022/01/28 09:19:58;;;;;;;6.20;3.83;;;8.80;99.90;;;;;;5041442;28;20514;-71
2022/01/28 09:22:24;;;;;;;6.37;4.10;;;8.70;99.90;;;;;;5053536;28;20263;-71
2022/01/28 09:24:52;;;;;;;8.70;3.50;;;8.70;99.90;;;;;;5051873;28;20649;-71
2022/01/28 09:27:18;;;;;;;13.57;4.97;;;8.70;99.90;;;;;;5033560;28;20558;-71
2022/01/28 09:29:43;;;;;;;9.30;6.10;;;8.70;99.90;;;;;;5058433;28;20522;-71
2022/01/28 09:32:09;;;;;;;10.70;5.90;;;8.80;99.90;;;;;;5052517;28;20550;-71
2022/01/28 09:34:35;;;;;;;7.27;3.93;;;8.90;99.90;;;;;;5070302;28;20226;-71
2022/01/28 09:37:01;;;;;;;10.67;6.13;;;8.90;99.90;;;;;;5053945;28;20646;-71
2022/01/28 09:39:29;;;;;;;10.40;4.73;;;8.90;99.90;;;;;;5064332;28;20180;-71
2022/01/28 09:42:00;;;;;;;9.90;3.90;;;9.00;99.90;;;;;;5052280;28;20264;-71
2022/01/28 09:44:31;;;;;;;10.10;5.20;;;9.20;99.90;;;;;;5052635;28;20389;-71
2022/01/28 09:46:59;;;;;;;10.00;4.83;;;9.30;99.90;;;;;;5061365;28;20412;-72
2022/01/28 09:49:26;;;;;;;15.20;5.00;;;9.60;99.90;;;;;;5064168;28;20427;-71
2022/01/28 09:51:52;;;;;;;8.80;3.63;;;10.00;99.90;;;;;;5072738;28;20460;-71
2022/01/28 09:54:18;;;;;;;14.03;4.40;;;10.40;99.10;;;;;;5071913;28;20424;-71
2022/01/28 09:56:44;;;;;;;15.40;5.57;;;10.90;97.00;;;;;;5071444;28;20760;-70
2022/01/28 09:59:09;;;;;;;6.70;4.20;;;11.10;96.40;;;;;;5069944;28;20296;-71
2022/01/28 10:01:53;;;;;;;9.05;4.38;;;11.40;95.90;;;;;;5070984;28;20479;-70
2022/01/28 10:04:19;;;;;;;11.77;5.67;;;11.80;95.20;;;;;;5071121;28;20177;-70
2022/01/28 10:06:46;;;;;;;6.63;4.00;;;11.90;94.80;;;;;;5072323;28;20949;-71
2022/01/28 10:09:15;;;;;;;9.67;3.87;;;12.00;93.20;;;;;;5055303;28;20431;-71
2022/01/28 10:11:43;;;;;;;7.93;4.40;;;12.00;92.90;;;;;;5055900;28;20459;-70
2022/01/28 10:14:22;;;;;;;11.53;5.40;;;12.10;92.40;;;;;;5051875;28;20498;-70
2022/01/28 10:17:06;;;;;;;8.10;3.43;;;12.10;92.70;;;;;;5052345;28;20433;-71
2022/01/28 10:19:40;;;;;;;10.03;4.73;;;12.00;93.50;;;;;;5051525;28;20443;-71
2022/01/28 10:22:19;;;;;;;6.57;3.33;;;12.10;92.10;;;;;;5038543;28;20540;-71
2022/01/28 10:24:45;;;;;;;13.17;5.83;;;12.10;91.60;;;;;;5032708;28;20420;-72
2022/01/28 10:27:10;;;;;;;6.83;4.33;;;12.20;91.60;;;;;;5013860;28;20430;-71
2022/01/28 10:29:38;;;;;;;11.90;3.90;;;12.30;92.10;;;;;;5032699;28;20174;-70
2022/01/28 10:32:05;;;;;;;14.10;5.77;;;12.30;91.50;;;;;;5031760;28;20194;-71
2022/01/28 10:34:36;;;;;;;7.43;3.30;;;12.20;91.10;;;;;;5042416;28;20441;-71
2022/01/28 10:37:17;;;;;;;6.20;3.50;;;12.10;90.00;;;;;;5044289;28;20446;-71
2022/01/28 10:40:01;;;;;;;9.97;3.70;;;12.00;89.10;;;;;;5042244;28;20813;-71
2022/01/28 10:42:41;;;;;;;10.13;4.53;;;12.00;91.70;;;;;;5014122;28;20459;-71
2022/01/28 10:45:16;;;;;;;12.53;4.63;;;12.00;91.00;;;;;;5013791;28;20404;-71
2022/01/28 10:47:50;;;;;;;7.77;3.10;;;12.10;90.90;;;;;;5032214;28;20463;-71
2022/01/28 10:50:27;;;;;;;11.20;4.90;;;12.20;91.00;;;;;;5031058;28;20445;-70
2022/01/28 10:53:17;;;;;;;9.70;3.90;;;12.40;91.40;;;;;;5032192;28;20413;-70
2022/01/28 10:55:54;;;;;;;13.03;4.67;;;12.50;89.90;;;;;;5032235;28;20447;-70
2022/01/28 10:58:22;;;;;;;7.30;4.20;;;12.40;86.80;;;;;;5031261;28;20798;-70
2022/01/28 11:01:02;;;;;;;7.80;3.60;;;12.30;87.10;;;;;;5032167;28;20405;-70
2022/01/28 11:03:28;;;;;;;7.20;4.60;;;12.30;87.80;;;;;;5031871;28;20882;-70
2022/01/28 11:05:59;;;;;;;10.27;4.70;;;12.20;87.20;;;;;;5032067;28;20416;-70
2022/01/28 11:08:26;;;;;;;8.40;3.90;;;12.20;87.60;;;;;;5014071;28;20752;-70
2022/01/28 11:10:52;;;;;;;6.73;3.90;;;12.10;87.60;;;;;;5032001;28;20500;-70
2022/01/28 11:13:18;;;;;;;11.43;3.97;;;12.20;87.50;;;;;;5013788;28;20771;-70
2022/01/28 11:15:45;;;;;;;10.00;3.93;;;12.00;89.70;;;;;;5035579;28;20969;-70
2022/01/28 11:18:11;;;;;;;7.20;4.03;;;12.00;89.50;;;;;;5034923;28;20180;-70
2022/01/28 11:20:49;;;;;;;10.07;4.73;;;11.80;88.80;;;;;;5035068;28;20419;-70
2022/01/28 11:23:53;;;;;;;14.37;3.83;;;11.70;88.70;;;;;;5034707;28;20895;-70
2022/01/28 11:26:43;;;;;;;9.90;4.47;;;11.50;89.60;;;;;;5035153;28;20865;-70
2022/01/28 11:29:13;;;;;;;6.63;3.30;;;11.40;90.50;;;;;;5034803;28;20413;-70
2022/01/28 11:31:49;;;;;;;4.97;2.97;;;11.40;88.40;;;;;;5035305;28;20471;-70
2022/01/28 11:34:30;;;;;;;10.60;4.80;;;11.30;90.90;;;;;;5034786;28;20414;-70
2022/01/28 11:37:29;;;;;;;9.83;4.03;;;11.10;90.80;;;;;;5035255;28;20827;-71
2022/01/28 11:40:06;;;;;;;6.30;3.80;;;11.10;90.70;;;;;;5017465;28;20419;-71
2022/01/28 11:42:32;;;;;;;14.17;4.17;;;11.00;91.00;;;;;;5020563;28;20919;-71
2022/01/28 11:44:59;;;;;;;9.20;3.60;;;10.90;90.30;;;;;;5040171;28;20492;-71
2022/01/28 11:47:33;;;;;;;9.10;4.33;;;10.90;89.40;;;;;;5035202;28;20694;-70
2022/01/28 11:50:03;;;;;;;15.20;4.20;;;10.90;88.30;;;;;;5034879;28;20417;-71
2022/01/28 11:52:32;;;;;;;13.47;3.60;;;10.90;89.60;;;;;;5034503;28;20410;-70
2022/01/28 11:55:18;;;;;;;8.50;4.37;;;10.90;90.00;;;;;;5034815;28;20801;-70
2022/01/28 11:58:03;;;;;;;6.60;2.87;;;10.80;90.00;;;;;;5020954;28;20442;-71
2022/01/28 12:00:30;;;;;;;14.43;4.40;;;10.80;88.00;;;;;;5034995;28;20423;-71
2022/01/28 12:02:56;;;;;;;8.00;5.47;;;10.80;89.10;;;;;;5034758;28;20417;-70
2022/01/28 12:05:31;;;;;;;14.10;4.47;;;10.70;90.00;;;;;;5034093;28;20526;-71
2022/01/28 12:07:59;;;;;;;7.33;3.37;;;10.60;88.40;;;;;;5034849;28;20421;-70
2022/01/28 12:10:26;;;;;;;7.93;3.17;;;10.70;88.50;;;;;;5033705;28;20463;-71
2022/01/28 12:13:00;;;;;;;6.90;3.90;;;10.70;89.40;;;;;;5016979;28;20412;-70
2022/01/28 12:15:30;;;;;;;12.27;5.40;;;10.60;90.40;;;;;;5016241;28;20493;-70
2022/01/28 12:18:13;;;;;;;13.23;4.50;;;10.70;90.50;;;;;;5034523;28;20413;-71
2022/01/28 12:20:43;;;;;;;4.47;3.13;;;10.70;91.50;;;;;;5034244;28;20443;-70
2022/01/28 12:23:09;;;;;;;15.50;5.00;;;10.80;90.40;;;;;;5033850;28;20474;-71
2022/01/28 12:25:41;;;;;;;7.33;3.60;;;11.00;91.00;;;;;;5033144;28;20429;-70
2022/01/28 12:28:18;;;;;;;9.63;4.20;;;11.10;90.30;;;;;;5033518;28;20183;-71
2022/01/28 12:30:48;;;;;;;8.53;3.33;;;11.20;88.50;;;;;;5034048;28;20454;-71
2022/01/28 12:33:19;;;;;;;11.63;4.10;;;11.40;90.20;;;;;;5033624;28;20468;-71
2022/01/28 12:35:49;;;;;;;7.90;4.20;;;11.50;88.80;;;;;;5034713;28;20394;-71
2022/01/28 12:38:15;;;;;;;8.60;4.60;;;11.50;88.40;;;;;;5033198;28;20409;-71
2022/01/28 12:40:48;;;;;;;9.40;3.90;;;11.60;89.90;;;;;;5034243;28;20899;-71
2022/01/28 12:43:18;;;;;;;12.07;4.10;;;11.60;89.10;;;;;;5033337;28;20404;-71
2022/01/28 12:46:01;;;;;;;8.53;3.83;;;11.60;87.70;;;;;;5016193;28;20413;-71
2022/01/28 12:48:27;;;;;;;7.20;4.50;;;11.50;89.80;;;;;;5033363;28;20929;-70
2022/01/28 12:50:54;;;;;;;10.40;3.80;;;11.50;90.00;;;;;;5033980;28;20480;-71
2022/01/28 12:53:41;;;;;;;11.37;3.50;;;11.30;88.00;;;;;;5015527;28;20229;-71
2022/01/28 12:56:09;;;;;;;13.50;4.23;;;11.30;87.60;;;;;;5015519;28;20931;-71
2022/01/28 12:58:37;;;;;;;7.87;4.30;;;11.40;85.40;;;;;;5033482;28;20884;-71
2022/01/28 13:01:15;;;;;;;9.53;4.33;;;11.20;86.10;;;;;;5033701;28;20811;-70
2022/01/28 13:03:49;;;;;;;12.43;3.70;;;11.20;87.30;;;;;;5033685;28;20413;-70
2022/01/28 13:09:13;;;;;;;8.00;3.60;;;11.00;86.50;;;;;;5033704;28;20447;-70
2022/01/28 13:11:50;;;;;;;9.23;3.40;;;11.00;86.40;;;;;;5033503;28;20447;-71
2022/01/28 13:14:26;;;;;;;5.30;3.87;;;10.90;86.30;;;;;;5032657;28;20878;-71
2022/01/28 13:16:53;;;;;;;6.17;3.87;;;10.80;85.80;;;;;;5043812;28;20500;-72
2022/01/28 13:19:19;;;;;;;7.47;4.03;;;10.80;86.10;;;;;;5031886;28;20909;-71
2022/01/28 13:21:47;;;;;;;12.60;4.23;;;10.80;87.40;;;;;;5043383;28;20489;-70
2022/01/28 13:24:19;;;;;;;11.50;4.40;;;10.70;87.40;;;;;;5044238;28;20421;-71
2022/01/28 13:27:05;;;;;;;7.83;4.40;;;10.70;86.60;;;;;;5037712;28;20466;-70
2022/01/28 13:29:38;;;;;;;10.77;3.60;;;10.70;90.10;;;;;;5043500;28;20513;-70
2022/01/28 13:32:09;;;;;;;8.00;4.10;;;10.70;88.50;;;;;;5041867;28;20448;-70
2022/01/28 13:34:52;;;;;;;16.03;5.57;;;10.70;87.60;;;;;;5032229;28;20746;-69
2022/01/28 13:37:43;;;;;;;13.23;4.40;;;10.90;86.60;;;;;;5025330;28;20533;-70
2022/01/28 13:40:21;;;;;;;6.17;3.40;;;10.90;89.20;;;;;;5043733;28;20492;-71
2022/01/28 13:43:07;;;;;;;10.63;4.90;;;11.10;86.60;;;;;;5045023;28;20423;-70
2022/01/28 13:45:43;;;;;;;9.30;3.67;;;11.20;86.20;;;;;;5045821;28;20905;-70
2022/01/28 13:48:15;;;;;;;7.10;3.90;;;11.30;85.80;;;;;;5043537;28;20534;-71
2022/01/28 13:50:44;;;;;;;9.17;4.00;;;11.40;85.60;;;;;;5045671;28;20440;-70
2022/01/28 13:55:50;;;;;;;6.87;3.93;;;11.40;86.70;;;;;;5032457;28;20495;-70
2022/01/28 13:58:16;;;;;;;8.57;3.97;;;11.50;87.70;;;;;;5030879;28;20884;-71
2022/01/28 14:00:50;;;;;;;7.57;3.97;;;11.30;85.00;;;;;;5041905;28;20526;-70
2022/01/28 14:03:23;;;;;;;10.27;4.50;;;11.30;86.80;;;;;;5040190;28;20474;-71
2022/01/28 14:05:53;;;;;;;14.83;3.93;;;11.30;85.50;;;;;;5036054;28;20775;-70
2022/01/28 14:08:41;;;;;;;6.50;3.77;;;11.40;85.80;;;;;;5041299;28;20437;-70
2022/01/28 14:11:37;;;;;;;7.40;4.50;;;11.30;86.10;;;;;;5035113;28;20491;-70
2022/01/28 14:16:54;;;;;;;9.27;4.87;;;11.20;85.70;;;;;;5031698;28;20427;-70
2022/01/28 14:19:20;;;;;;;9.13;6.47;;;11.10;85.60;;;;;;5034798;28;20430;-70
2022/01/28 14:21:47;;;;;;;11.53;4.93;;;11.00;85.90;;;;;;5051583;28;20801;-70
2022/01/28 14:24:18;;;;;;;7.87;4.57;;;11.00;86.10;;;;;;5033385;28;20948;-71
2022/01/28 14:26:55;;;;;;;15.10;4.87;;;11.00;89.50;;;;;;5033994;28;20403;-70
2022/01/28 14:32:04;;;;;;;13.10;4.70;;;10.90;88.30;;;;;;5035928;28;20454;-70